Terminal Aerodrome Forecast
Issued by NWS

Home | Current Version | Previous Version | Text Only | Print | Product List | Glossary Off
Versions: 1 2 3 4 5 6 7 8 9 10 11 12 13 14 15 16 17 18 19 20 21 22 23 24 25

000
FTUS41 KCLE 152300 RRA
TAFFDY
TAF
KFDY 152343Z 1600/1624 34004KT 6SM -SHRA BR SCT028 OVC040
      TEMPO 1600/1603 5SM RA BR BKN028 OVC040
     FM160300 35004KT P6SM VCSH BKN015
     FM160600 33004KT 5SM BR OVC007
     FM161500 32004KT P6SM BKN015
     FM162000 33004KT P6SM SCT030=

USA.gov is the U.S. government's official web portal to all federal, state and local government web resources and services.